»·PEaware :: N151LW KOXR-L70

N151LW :: KOXR-L70

FLIGHT INFORMATION

Flight Status: Arrived
Operator: Privately registered:
United States
More flights under this callsign
Pilot: Pratham R. (19019)
Aircraft: ROBIN DR-400
(DR40)
More flights by this aircraft type
Origin: KOXR Oxnard
United States
Destination: L70 Agua Dulce
United States
More flights between these airports :: More routes between these airports
Route: DCT
File this flight plan on PilotEdge
Remarks: VFR Flight
Altitude:
(Current/Filed)
5,500ft
Speed:
(Current/Filed)
127kts
Departed: 24-Jun-18 06:02 PM
Arrived: 24-Jun-18 06:29 PM
Distance/Time
Traveled:
48nm/0:27
Distance/Time
To Go:
Arrived

Flight Plot

Page will automatically refresh every two minutes.

Flight plan parsing failed; only flown route is shown


Map Options




Map Legend


Flown Route
Filed Route
Departure Airport
Arrival Airport
Navaid (VOR, NDB)
Fix

Horizontal Profiles

Position Reports

Time Latitude Longitude Heading Altitude Ground
Speed
24-Jun-18 17:48 34.199319 -119.207535 270 36ft 0kts
24-Jun-18 17:49 34.199319 -119.207535 270 36ft 0kts
24-Jun-18 17:50 34.199319 -119.207535 270 36ft 0kts
24-Jun-18 17:51 34.199319 -119.207535 270 36ft 0kts
24-Jun-18 17:52 34.199319 -119.207535 270 36ft 0kts
24-Jun-18 17:53 34.199319 -119.207535 270 36ft 0kts
24-Jun-18 17:54 34.199319 -119.207536 270 36ft 0kts
24-Jun-18 17:55 34.199319 -119.207536 270 36ft 0kts
24-Jun-18 17:56 34.199319 -119.207536 270 36ft 0kts
24-Jun-18 17:57 34.199799 -119.206391 89 36ft 11kts
24-Jun-18 17:58 34.199757 -119.201553 90 39ft 17kts
24-Jun-18 17:59 34.199934 -119.197537 12 42ft 0kts
24-Jun-18 18:00 34.199933 -119.197537 12 42ft 0kts
24-Jun-18 18:01 34.200281 -119.197516 357 42ft 4kts
24-Jun-18 18:02 34.200206 -119.213436 263 397ft 99kts
24-Jun-18 18:03 34.219139 -119.230086 344 1438ft 109kts
24-Jun-18 18:04 34.231507 -119.201742 93 1821ft 119kts
24-Jun-18 18:05 34.231651 -119.163550 88 2475ft 110kts
24-Jun-18 18:06 34.233112 -119.126759 83 3235ft 108kts
24-Jun-18 18:07 34.240420 -119.090253 65 3837ft 114kts
24-Jun-18 18:08 34.253006 -119.054737 66 4434ft 115kts
24-Jun-18 18:09 34.265252 -119.018945 67 5029ft 116kts
24-Jun-18 18:10 34.276112 -118.987082 67 5495ft 121kts
24-Jun-18 18:11 34.289011 -118.949138 67 5509ft 129kts
24-Jun-18 18:12 34.302569 -118.909243 67 5508ft 129kts
24-Jun-18 18:13 34.316170 -118.869177 67 5508ft 129kts
24-Jun-18 18:14 34.329772 -118.829059 67 5508ft 129kts
24-Jun-18 18:15 34.343397 -118.788818 67 5508ft 129kts
24-Jun-18 18:16 34.356935 -118.748785 67 5508ft 129kts
24-Jun-18 18:17 34.370516 -118.708571 67 5508ft 129kts
24-Jun-18 18:18 34.384056 -118.668429 67 5508ft 129kts
24-Jun-18 18:19 34.397522 -118.628455 67 5508ft 129kts
24-Jun-18 18:20 34.411001 -118.588389 67 5508ft 129kts
24-Jun-18 18:21 34.422268 -118.554859 67 5508ft 129kts
24-Jun-18 18:22 34.437782 -118.508630 67 5508ft 129kts
24-Jun-18 18:23 34.451300 -118.468295 67 5508ft 129kts
24-Jun-18 18:24 34.464994 -118.427362 67 5138ft 139kts
24-Jun-18 18:25 34.479816 -118.383000 67 4422ft 145kts
24-Jun-18 18:26 34.492151 -118.348229 64 3689ft 103kts
24-Jun-18 18:27 34.507740 -118.319723 53 3240ft 94kts
24-Jun-18 18:28 34.511916 -118.303126 185 2968ft 76kts
24-Jun-18 18:29 34.503987 -118.311871 136 2636ft 7kts
24-Jun-18 18:30 34.504189 -118.311066 310 2644ft 0kts
24-Jun-18 18:31 34.504189 -118.311066 310 2644ft 0kts
24-Jun-18 18:32 34.504189 -118.311066 310 2644ft 0kts
24-Jun-18 18:33 34.504189 -118.311066 310 2644ft 0kts
24-Jun-18 18:34 34.504189 -118.311066 310 2644ft 0kts
24-Jun-18 18:35 34.504189 -118.311066 310 2644ft 0kts
24-Jun-18 18:36 34.504189 -118.311066 310 2644ft 0kts
24-Jun-18 18:37 34.504189 -118.311066 310 2644ft 0kts
24-Jun-18 18:38 34.504189 -118.311066 310 2644ft 0kts

Navigation Log

Ident Type
Flight plan parsing failed, navigation log unavailable